Flight Track Log - Related Links

Times and Time Zones

All times are in EDT time to prevent confusion due to time zone crossing. See the SWA1103 flight status page for this flight to view local times or setup timezone preferences in your user account.

Time Position Orientation Groundspeed Altitude Reporting Facility
EDT Latitude Longitude Course Direction KTS MPH feet Rate Location/Type
Wed 08:46:52 PM 41.7667 -87.7833 276° West 159 183 2,100  Level Chicago TRACON
Wed 08:47:52 PM 41.7500 -87.8500 251° West 223 257 4,400 1,813 Climbing Chicago TRACON
Wed 08:48:28 PM 41.7561 -87.8922 281° West 236 272 5,000 2,388 Climbing Chicago Center
Wed 08:49:30 PM 41.8161 -87.9842 311° West 274 315 8,300 3,145 Climbing Chicago Center
Wed 08:50:32 PM 41.8722 -88.0608 315° West 293 337 11,500 2,323 Climbing Chicago Center
Wed 08:51:34 PM 41.9050 -88.1725 292° West 323 372 13,100 2,226 Climbing Chicago Center
Wed 08:52:00 PM 41.8484 -88.4785 276° West  Level FlightAware Approximate
Wed 08:52:36 PM 41.9403 -88.2994 291° West 359 413 16,100  Level Chicago Center
Wed 08:53:38 PM 41.9831 -88.4597 290° West 380 437 19,300 2,758 Climbing Chicago Center
Wed 08:54:40 PM 42.0181 -88.5983 289° West 391 450 21,800 2,032 Climbing Chicago Center
Wed 08:55:42 PM 42.0558 -88.7408 290° West 405 466 23,500 1,742 Climbing Chicago Center
Wed 08:56:44 PM 42.0931 -88.8883 289° West 425 489 25,400 1,790 Climbing Chicago Center
Wed 08:57:46 PM 42.1086 -89.0822 276° West 443 510 27,200 1,645 Climbing Chicago Center
Wed 08:58:48 PM 42.1206 -89.2531 275° West 451 519 28,800 1,594 Climbing Chicago Center
Wed 08:59:54 PM 42.1353 -89.4269 277° West 461 531 30,600 1,828 Climbing Chicago Center
Wed 09:00:56 PM 42.1500 -89.5992 277° West 462 532 32,700 2,000 Climbing Chicago Center
Wed 09:01:57 PM 42.1678 -89.7925 277° West 450 518 34,700 1,610 Climbing Chicago Center
Wed 09:02:59 PM 42.1850 -89.9569 278° West 438 504 36,000 629 Climbing Chicago Center
Wed 09:04:01 PM 42.2056 -90.1169 280° West 438 504 36,000  Level Chicago Center
Wed 09:05:03 PM 42.2231 -90.2764 278° West 435 501 36,000  Level Chicago Center
Wed 09:06:05 PM 42.2411 -90.4378 279° West 436 502 36,000 387 Level Chicago Center
Wed 09:07:07 PM 42.2586 -90.5983 278° West 436 502 36,800 968 Climbing Chicago Center
Wed 09:08:09 PM 42.2817 -90.7903 279° West 435 501 38,000 581 Climbing Chicago Center
Wed 09:09:11 PM 42.2992 -90.9492 279° West 431 496 38,000  Level Chicago Center
Wed 09:10:13 PM 42.3150 -91.1111 278° West 436 502 38,000  Level Chicago Center
Wed 09:11:15 PM 42.3328 -91.2694 279° West 430 495 38,000  Level Chicago Center
Wed 09:12:17 PM 42.3489 -91.4308 278° West 432 497 38,000  Level Chicago Center
Wed 09:13:18 PM 42.3647 -91.5906 278° West 430 495 38,000  Level Chicago Center
Wed 09:14:20 PM 42.3811 -91.7483 278° West 426 490 38,000  Level Chicago Center
Wed 09:15:22 PM 42.4000 -91.9375 278° West 422 486 38,000  Level Chicago Center
Wed 09:16:24 PM 42.4158 -92.0958 278° West 424 488 38,000  Level Chicago Center
Wed 09:17:01 PM 42.4256 -92.1911 278° West 424 488 38,000  Level Minneapolis Center
Wed 09:18:03 PM 42.4408 -92.3478 278° West 422 486 38,000  Level Minneapolis Center
Wed 09:19:05 PM 42.4553 -92.5008 277° West 418 481 38,000  Level Minneapolis Center
Wed 09:20:06 PM 42.4692 -92.6544 277° West 414 476 38,000  Level Minneapolis Center
Wed 09:21:08 PM 42.4914 -92.8372 279° West 414 476 38,000  Level Minneapolis Center
Wed 09:22:10 PM 42.5314 -92.9864 290° West 421 484 38,000  Level Minneapolis Center
Wed 09:23:12 PM 42.5678 -93.1369 288° West 424 488 38,000  Level Minneapolis Center
Wed 09:24:14 PM 42.6047 -93.2875 288° West 424 488 38,000  Level Minneapolis Center
Wed 09:25:16 PM 42.6417 -93.4397 288° West 427 491 38,000  Level Minneapolis Center
Wed 09:26:18 PM 42.6811 -93.5911 290° West 428 493 38,000  Level Minneapolis Center
Wed 09:27:19 PM 42.7253 -93.7744 288° West 428 493 38,000  Level Minneapolis Center
Wed 09:28:21 PM 42.7600 -93.9261 287° West 425 489 38,000  Level Minneapolis Center
Wed 09:29:23 PM 42.7958 -94.0772 288° West 424 488 38,000  Level Minneapolis Center
Wed 09:30:25 PM 42.8311 -94.2278 288° West 423 487 38,000  Level Minneapolis Center
Wed 09:31:26 PM 42.8683 -94.3781 289° West 422 486 38,000  Level Minneapolis Center
Wed 09:32:28 PM 42.9028 -94.5294 287° West 422 486 38,000  Level Minneapolis Center
Wed 09:33:30 PM 42.9433 -94.7083 287° West 409 471 38,000  Level Minneapolis Center
Wed 09:34:32 PM 42.9775 -94.8583 287° West 412 474 38,000  Level Minneapolis Center
Wed 09:35:33 PM 43.0111 -95.0058 287° West 410 472 38,000  Level Minneapolis Center
Wed 09:36:34 PM 43.0447 -95.1531 287° West 407 468 38,000  Level Minneapolis Center
Wed 09:37:36 PM 43.0781 -95.3033 287° West 412 474 38,000  Level Minneapolis Center
Wed 09:38:38 PM 43.1119 -95.4528 287° West 413 475 38,000  Level Minneapolis Center
Wed 09:39:39 PM 43.1442 -95.6022 287° West 410 472 38,000  Level Minneapolis Center
Wed 09:40:40 PM 43.1778 -95.7533 287° West 414 476 38,000  Level Minneapolis Center
Wed 09:41:42 PM 43.2169 -95.9317 287° West 410 472 38,000  Level Minneapolis Center
Wed 09:42:43 PM 43.2494 -96.0836 286° West 413 475 38,000  Level Minneapolis Center
Wed 09:43:45 PM 43.2825 -96.2339 287° West 412 474 38,000  Level Minneapolis Center
Wed 09:44:46 PM 43.3136 -96.3842 286° West 410 472 38,000  Level Minneapolis Center
Wed 09:45:48 PM 43.3458 -96.5342 287° West 409 471 38,000  Level Minneapolis Center
Wed 09:46:49 PM 43.3781 -96.6886 286° West 414 476 38,000  Level Minneapolis Center
Wed 09:47:50 PM 43.4100 -96.8414 286° West 416 479 38,000  Level Minneapolis Center
Wed 09:48:52 PM 43.4411 -96.9942 286° West 416 479 38,000  Level Minneapolis Center
Wed 09:49:53 PM 43.4725 -97.1461 286° West 414 476 38,000  Level Minneapolis Center
Wed 09:50:54 PM 43.5031 -97.2953 286° West 407 468 38,000  Level Minneapolis Center
Wed 09:51:55 PM 43.5392 -97.4744 286° West 405 466 38,000  Level Minneapolis Center
Wed 09:52:57 PM 43.5697 -97.6242 286° West 406 467 38,000  Level Minneapolis Center
Wed 09:53:58 PM 43.5997 -97.7736 286° West 404 465 38,000  Level Minneapolis Center
Wed 09:54:59 PM 43.6292 -97.9244 285° West 406 467 38,000  Level Minneapolis Center
Wed 09:56:00 PM 43.6581 -98.0750 285° West 407 468 38,000  Level Minneapolis Center
Wed 09:57:01 PM 43.6883 -98.2258 286° West 407 468 38,000  Level Minneapolis Center
Wed 09:58:03 PM 43.7172 -98.3775 285° West 407 468 38,000  Level Minneapolis Center
Wed 09:59:04 PM 43.7458 -98.5269 285° West 406 467 38,000  Level Minneapolis Center
Wed 10:00:05 PM 43.7769 -98.6925 285° West 400 460 38,000  Level Minneapolis Center
Wed 10:01:06 PM 43.8053 -98.8400 285° West 398 458 38,000  Level Minneapolis Center
Wed 10:02:07 PM 43.8328 -98.9889 284° West 398 458 38,000  Level Minneapolis Center
Wed 10:03:09 PM 43.8603 -99.1356 285° West 395 455 38,000  Level Minneapolis Center
Wed 10:04:10 PM 43.8869 -99.2831 284° West 394 453 38,000  Level Minneapolis Center
Wed 10:05:11 PM 43.9147 -99.4308 285° West 395 455 38,000  Level Minneapolis Center
Wed 10:06:12 PM 43.9422 -99.5786 285° West 395 455 38,000  Level Minneapolis Center
Wed 10:07:13 PM 43.9683 -99.7269 284° West 395 455 38,000  Level Minneapolis Center
Wed 10:08:14 PM 43.9936 -99.8758 283° West 395 455 38,000  Level Minneapolis Center
Wed 10:09:15 PM 44.0203 -100.0217 284° West 392 451 38,000  Level Minneapolis Center
Wed 10:10:17 PM 44.0464 -100.1703 284° West 394 453 38,000  Level Minneapolis Center
Wed 10:11:18 PM 44.0714 -100.3186 283° West 394 453 38,000  Level Minneapolis Center
Wed 10:12:19 PM 44.1031 -100.4992 284° West 397 457 38,000  Level Minneapolis Center
Wed 10:13:20 PM 44.1292 -100.6500 284° West 399 459 38,000  Level Minneapolis Center
Wed 10:14:21 PM 44.1547 -100.8006 283° West 400 460 38,000  Level Minneapolis Center
Wed 10:16:23 PM 44.2053 -101.1058 283° West 402 463 38,000  Level Minneapolis Center
Wed 10:17:24 PM 44.2308 -101.2606 283° West 405 466 38,000  Level Minneapolis Center
Wed 10:18:25 PM 44.2561 -101.4181 283° West 409 471 38,000  Level Minneapolis Center
Wed 10:19:27 PM 44.2819 -101.5758 283° West 412 474 38,000  Level Minneapolis Center
Wed 10:20:33 PM 44.3097 -101.7633 282° West 415 478 38,000  Level Denver Center
Wed 10:21:34 PM 44.3308 -101.8897 283° West 416 479 38,000  Level Denver Center
Wed 10:22:36 PM 44.3617 -102.0797 283° West 417 480 38,000  Level Denver Center
Wed 10:23:37 PM 44.3856 -102.2350 282° West 412 474 38,000  Level Denver Center
Wed 10:24:39 PM 44.4106 -102.3925 283° West 413 475 38,000  Level Denver Center
Wed 10:25:40 PM 44.4333 -102.5483 282° West 412 474 38,000  Level Denver Center
Wed 10:26:42 PM 44.4581 -102.7044 283° West 411 473 38,000  Level Denver Center
Wed 10:27:43 PM 44.4803 -102.8619 281° West 412 474 38,000  Level Denver Center
Wed 10:28:45 PM 44.5042 -103.0200 282° West 413 475 38,000  Level Denver Center
Wed 10:29:46 PM 44.5328 -103.2108 282° West 417 480 38,000  Level Denver Center
Wed 10:31:00 PM 44.5558 -103.3711 281° West 420 483 38,000  Level Denver Center
Wed 10:32:02 PM 44.5792 -103.5328 282° West 424 488 38,000  Level Denver Center
Wed 10:33:03 PM 44.6061 -103.7261 281° West 432 497 38,000  Level Denver Center
Wed 10:34:05 PM 44.6325 -103.9092 282° West 433 498 38,000  Level Denver Center
Wed 10:35:06 PM 44.6544 -104.0672 281° West 434 499 38,000  Level Denver Center
Wed 10:36:08 PM 44.6761 -104.2244 281° West 431 496 38,000  Level Denver Center
Wed 10:37:09 PM 44.7017 -104.4075 281° West 428 493 38,000  Level Denver Center
Wed 10:38:11 PM 44.7217 -104.5664 280° West 431 496 38,000  Level Denver Center
Wed 10:38:36 PM 44.7317 -104.6403 281° West 429 494 38,000  Level Salt Lake Center
Wed 10:39:12 PM 44.7461 -104.7453 281° West 427 491 38,000  Level Denver Center
Wed 10:40:14 PM 44.7653 -104.9019 280° West 425 489 38,000  Level Denver Center
Wed 10:41:15 PM 44.7903 -105.0850 281° West 426 490 38,000  Level Denver Center
Wed 10:42:17 PM 44.8094 -105.2394 280° West 420 483 38,000  Level Denver Center
Wed 10:43:18 PM 44.8289 -105.3969 280° West 424 488 38,000  Level Denver Center
Wed 10:44:20 PM 44.8522 -105.5783 280° West 422 486 38,000  Level Denver Center
Wed 10:45:21 PM 44.8717 -105.7339 280° West 422 486 38,000  Level Denver Center
Wed 10:46:34 PM 44.8928 -105.9167 279° West 422 486 38,000  Level Denver Center
Wed 10:46:49 PM 44.8986 -105.9672 279° West 421 484 38,000  Level Salt Lake Center
Wed 10:47:50 PM 44.9203 -106.1481 280° West 419 482 38,000  Level Salt Lake Center
Wed 10:48:52 PM 44.9381 -106.3025 279° West 418 481 38,000  Level Salt Lake Center
Wed 10:49:53 PM 44.9589 -106.4842 279° West 419 482 38,000  Level Salt Lake Center
Wed 10:50:55 PM 44.9764 -106.6408 279° West 421 484 38,000  Level Salt Lake Center
Wed 10:51:56 PM 44.9944 -106.7967 279° West 421 484 38,000  Level Salt Lake Center
Wed 10:52:58 PM 45.0164 -106.9828 280° West 428 493 38,000  Level Salt Lake Center
Wed 10:53:59 PM 45.0328 -107.1419 278° West 428 493 38,000  Level Salt Lake Center
Wed 10:55:02 PM 45.0531 -107.3278 279° West 428 493 38,000  Level Salt Lake Center
Wed 10:56:02 PM 45.0703 -107.4831 279° West 422 486 38,000  Level Salt Lake Center
Wed 10:57:03 PM 45.0872 -107.6394 279° West 422 486 38,000  Level Salt Lake Center
Wed 10:58:05 PM 45.1061 -107.8231 278° West 426 490 38,000  Level Salt Lake Center
Wed 10:59:06 PM 45.1217 -107.9811 278° West 428 493 38,000  Level Salt Lake Center
Wed 11:00:08 PM 45.1406 -108.1658 278° West 429 494 38,000  Level Salt Lake Center
Wed 11:01:09 PM 45.1572 -108.3267 278° West 432 497 38,000  Level Salt Lake Center
Wed 11:02:10 PM 45.1747 -108.5136 278° West 431 496 38,000  Level Salt Lake Center
Wed 11:03:12 PM 45.1900 -108.6717 278° West 425 489 38,000  Level Salt Lake Center
Wed 11:04:13 PM 45.2078 -108.8561 278° West 425 489 38,000  Level Salt Lake Center
Wed 11:05:14 PM 45.2217 -109.0153 277° West 424 488 38,000  Level Salt Lake Center
Wed 11:06:16 PM 45.2364 -109.1722 278° West 421 484 38,000  Level Salt Lake Center
Wed 11:07:17 PM 45.2525 -109.3528 277° West 415 478 38,000  Level Salt Lake Center
Wed 11:08:18 PM 45.2669 -109.5081 278° West 416 479 38,000  Level Salt Lake Center
Wed 11:09:22 PM 45.2803 -109.6631 277° West 414 476 38,000  Level Salt Lake Center
Wed 11:10:21 PM 45.2961 -109.8431 277° West 412 474 38,000  Level Salt Lake Center
Wed 11:11:22 PM 45.3089 -109.9983 277° West 414 476 38,000  Level Salt Lake Center
Wed 11:12:23 PM 45.3225 -110.1792 276° West 414 476 38,000  Level Salt Lake Center
Wed 11:13:25 PM 45.3350 -110.3333 277° West 411 473 38,000  Level Salt Lake Center
Wed 11:14:26 PM 45.3475 -110.4889 277° West 414 476 38,000  Level Salt Lake Center
Wed 11:15:27 PM 45.3597 -110.6514 276° West 416 479 38,000  Level Salt Lake Center
Wed 11:16:28 PM 45.3722 -110.8156 276° West 414 476 38,000  Level Salt Lake Center
Wed 11:17:30 PM 45.3850 -110.9792 276° West 414 476 38,000  Level Salt Lake Center
Wed 11:18:31 PM 45.3969 -111.1428 276° West 413 475 38,000  Level Salt Lake Center
Wed 11:19:32 PM 45.4086 -111.3081 276° West 416 479 38,000  Level Salt Lake Center
Wed 11:20:33 PM 45.4219 -111.5067 276° West 416 479 38,000  Level Salt Lake Center
Wed 11:21:35 PM 45.4344 -111.6706 276° West 415 478 38,000  Level Salt Lake Center
Wed 11:22:36 PM 45.4456 -111.8347 276° West 415 478 38,000  Level Salt Lake Center
Wed 11:23:37 PM 45.4558 -111.9961 275° West 409 471 38,000  Level Salt Lake Center
Wed 11:24:38 PM 45.4658 -112.1553 275° West 403 464 38,000  Level Salt Lake Center
Wed 11:25:39 PM 45.4758 -112.3147 275° West 405 466 38,000  Level Salt Lake Center
Wed 11:26:41 PM 45.4850 -112.4764 275° West 408 470 38,000  Level Salt Lake Center
Wed 11:27:42 PM 45.4953 -112.6369 275° West 408 470 38,000  Level Salt Lake Center
Wed 11:28:43 PM 45.5053 -112.7978 275° West 408 470 38,000  Level Salt Lake Center
Wed 11:29:44 PM 45.5136 -112.9528 274° West 396 456 38,000  Level Salt Lake Center
Wed 11:30:45 PM 45.5225 -113.1069 275° West 391 450 38,000  Level Salt Lake Center
Wed 11:31:47 PM 45.5303 -113.2597 274° West 388 447 38,000  Level Salt Lake Center
Wed 11:32:48 PM 45.5383 -113.4100 274° West 382 440 38,000  Level Salt Lake Center
Wed 11:33:49 PM 45.5478 -113.5956 274° West 392 451 38,000  Level Salt Lake Center
Wed 11:34:50 PM 45.5561 -113.7314 275° West 387 445 38,000  Level Salt Lake Center
Wed 11:35:51 PM 45.5642 -113.9031 274° West 390 449 38,000  Level Salt Lake Center
Wed 11:36:52 PM 45.5725 -114.0494 275° West 388 447 38,000  Level Salt Lake Center
Wed 11:37:53 PM 45.5803 -114.2194 274° West 386 444 38,000  Level Salt Lake Center
Wed 11:38:55 PM 45.5864 -114.3667 273° West 388 447 38,000  Level Salt Lake Center
Wed 11:39:56 PM 45.5928 -114.5167 274° West 395 455 38,000  Level Salt Lake Center
Wed 11:40:57 PM 45.6006 -114.6906 274° West 395 455 38,000  Level Salt Lake Center
Wed 11:41:58 PM 45.6069 -114.8431 273° West 400 460 38,000  Level Salt Lake Center
Wed 11:42:59 PM 45.6092 -114.9925 271° West 398 458 38,000  Level Salt Lake Center
Wed 11:44:00 PM 45.6111 -115.1642 271° West 390 449 38,000  Level Salt Lake Center
Wed 11:44:42 PM 45.6122 -115.2656 271° West 395 455 38,000  Level Seattle Center
Wed 11:45:43 PM 45.6142 -115.4139 271° West 392 451 38,000  Level Seattle Center
Wed 11:46:44 PM 45.6169 -115.5858 271° West 391 450 38,000  Level Seattle Center
Wed 11:47:44 PM 45.6183 -115.7350 271° West 392 451 38,000  Level Seattle Center
Wed 11:48:45 PM 45.6192 -115.8844 271° West 394 453 38,000  Level Seattle Center
Wed 11:49:05 PM 45.6192 -115.9600 270° West 397 457 38,000 -444 Level Salt Lake Center
Wed 11:50:06 PM 45.6214 -116.1069 271° West 392 451 37,400 -588 Descending Salt Lake Center
Wed 11:50:47 PM 45.6214 -116.2064 270° West 393 452 37,000 -238 Descending Seattle Center
Wed 11:51:47 PM 45.6225 -116.3817 271° West 395 455 37,000  Level Seattle Center
Wed 11:52:48 PM 45.6225 -116.5319 270° West 396 456 37,000  Level Seattle Center
Wed 11:53:49 PM 45.6233 -116.6811 271° West 395 455 37,000  Level Seattle Center
Wed 11:54:49 PM 45.6231 -116.8567 270° West 397 457 37,000  Level Seattle Center
Wed 11:55:50 PM 45.6231 -117.0058 270° West 395 455 37,000  Level Seattle Center
Wed 11:56:51 PM 45.6228 -117.1572 270° West 398 458 37,000  Level Seattle Center
Wed 11:57:52 PM 45.6217 -117.3339 270° West 400 460 37,000  Level Seattle Center
Wed 11:58:52 PM 45.6208 -117.4844 270° West 396 456 37,000  Level Seattle Center
Wed 11:59:53 PM 45.6200 -117.6428 270° West 399 459 37,000  Level Seattle Center
Thu 12:00:54 AM 45.6200 -117.7989 270° West 396 456 37,000  Level Seattle Center
Thu 12:01:55 AM 45.6181 -117.9583 269° West 403 464 37,000  Level Seattle Center
Thu 12:02:55 AM 45.6167 -118.1167 269° West 400 460 37,000  Level Seattle Center
Thu 12:03:56 AM 45.6144 -118.2733 269° West 399 459 37,000  Level Seattle Center
Thu 12:04:57 AM 45.6128 -118.4319 269° West 400 460 37,000  Level Seattle Center
Thu 12:05:58 AM 45.6100 -118.5869 269° West 395 455 37,000  Level Seattle Center
Thu 12:06:58 AM 45.6081 -118.7456 269° West 400 460 37,000  Level Seattle Center
Thu 12:07:59 AM 45.6056 -118.9014 269° West 396 456 37,000  Level Seattle Center
Thu 12:09:00 AM 45.6028 -119.0561 269° West 394 453 37,000  Level Seattle Center
Thu 12:10:00 AM 45.6000 -119.2108 269° West 392 451 37,000  Level Seattle Center
Thu 12:11:01 AM 45.5958 -119.3969 268° West 393 452 37,000  Level Seattle Center
Thu 12:12:02 AM 45.5922 -119.5511 268° West 392 451 37,000  Level Seattle Center
Thu 12:13:02 AM 45.5883 -119.7056 268° West 392 451 37,000  Level Seattle Center
Thu 12:14:03 AM 45.5842 -119.8608 268° West 394 453 37,000 -295 Level Seattle Center
Thu 12:15:04 AM 45.5797 -120.0142 268° West 392 451 36,400 -1,574 Descending Seattle Center
Thu 12:16:05 AM 45.5761 -120.1664 268° West 389 448 33,800 -2,529 Descending Seattle Center
Thu 12:17:05 AM 45.5714 -120.3186 268° West 387 445 31,300 -2,380 Descending Seattle Center
Thu 12:18:06 AM 45.5667 -120.4803 268° West 409 471 29,000 -2,262 Descending Seattle Center
Thu 12:19:07 AM 45.5606 -120.6428 267° West 412 474 26,700 -2,231 Descending Seattle Center
Thu 12:20:07 AM 45.5564 -120.7981 268° West 400 460 24,500 -2,182 Descending Seattle Center
Thu 12:21:08 AM 45.5517 -120.9469 267° West 384 442 22,300 -2,066 Descending Seattle Center
Thu 12:22:09 AM 45.5461 -121.0928 267° West 374 430 20,300 -1,934 Descending Seattle Center
Thu 12:23:09 AM 45.5414 -121.2319 267° West 361 415 18,400 -1,785 Descending Seattle Center
Thu 12:24:10 AM 45.5347 -121.3972 267° West 352 405 16,700 -2,017 Descending Seattle Center
Thu 12:25:05 AM 45.5303 -121.5333 267° West 362 417 14,500 -2,278 Descending Seattle Center
Thu 12:25:29 AM 45.5272 -121.5906 266° West 360 414 13,700 -2,000 Descending Seattle Center
Thu 12:26:11 AM 45.5233 -121.6792 266° West 355 409 12,300 -1,967 Descending Seattle Center
Thu 12:26:30 AM 45.5211 -121.7261 266° West 348 400 11,700 -1,869 Descending Seattle Center
Thu 12:27:12 AM 45.5178 -121.8142 267° West 346 398 10,400 -1,770 Descending Seattle Center
Thu 12:27:31 AM 45.5161 -121.8581 267° West 331 381 9,900 -1,300 Descending Seattle Center
Thu 12:28:12 AM 45.5153 -121.9400 269° West 328 377 9,100 -1,377 Descending Seattle Center
Thu 12:28:32 AM 45.5150 -121.9883 270° West 291 335 8,500 -2,066 Descending Seattle Center
Thu 12:29:13 AM 45.5164 -122.0600 272° West 310 357 7,000 -2,400 Descending Seattle Center
Thu 12:29:32 AM 45.5147 -122.1028 267° West 296 341 6,100 -1,574 Descending Seattle Center
Thu 12:30:14 AM 45.5161 -122.1778 272° West 303 349 5,400 -787 Descending Seattle Center
Thu 12:30:33 AM 45.5139 -122.2142 265° West 266 306 5,300 -1,400 Descending Seattle Center
Thu 12:31:14 AM 45.5147 -122.2792 271° West 271 312 4,000 -1,522 Descending Seattle Center
Thu 12:31:40 AM 45.5128 -122.3258 267° West 256 295 3,600 -787 Descending Seattle Center
Thu 12:32:15 AM 45.5122 -122.3778 269° West 257 296 3,200 -667 Descending Seattle Center
Thu 12:32:34 AM 45.5211 -122.4086 292° West 221 254 3,000 -800 Descending Seattle Center
Thu 12:33:15 AM 45.5358 -122.4481 298° West 206 237 2,400 -985 Descending Seattle Center
Thu 12:33:41 AM 45.5481 -122.4778 300° West 155 178 1,900 -1,279 Descending Seattle Center
Thu 12:34:16 AM 45.5589 -122.5058 299° West 181 208 1,100 -1,180 Descending Seattle Center
Thu 12:34:42 AM 45.5703 -122.5336 300° West 154 177 700 -787 Descending Seattle Center
Thu 12:35:17 AM 45.5794 -122.5567 300° West 167 192 300 -686 Descending Seattle Center

Login

Don't have an account? Register now (free) for customized features, flight alerts, and more!